Time;durP1;ratioP1;P1;durP2;ratioP2;P2;SDS_P1;SDS_P2;PMS_P1;PMS_P2;Temp;Humidity;BMP_temperature;BMP_pressure;BME280_temperature;BME280_humidity;BME280_pressure;Samples;Min_cycle;Max_cycle;Signal;HPM_P1;HPM_P2
2022/08/27 00:01:31;;;;;;;10.40;8.32;;;;;;;22.45;74.83;101280.59;6033728;29;20226;-68
2022/08/27 00:04:52;;;;;;;7.90;7.03;;;;;;;22.72;74.00;101281.59;6030881;29;20233;-67
2022/08/27 00:08:14;;;;;;;10.93;7.85;;;;;;;22.66;73.77;101286.00;6037290;29;20245;-68
2022/08/27 00:11:35;;;;;;;9.70;8.63;;;;;;;22.53;74.19;101282.34;6038358;29;20242;-68
2022/08/27 00:14:57;;;;;;;10.45;8.05;;;;;;;22.60;74.46;101284.09;6039572;29;20312;-68
2022/08/27 00:18:20;;;;;;;11.75;7.68;;;;;;;22.57;74.44;101286.38;6030473;29;20234;-68
2022/08/27 00:21:40;;;;;;;9.77;8.05;;;;;;;22.55;74.66;101282.97;6039293;29;20241;-68
2022/08/27 00:25:01;;;;;;;9.68;7.20;;;;;;;22.77;73.83;101277.19;6033634;29;20257;-68
2022/08/27 00:28:22;;;;;;;9.07;7.53;;;;;;;22.80;73.24;101275.94;6034917;29;20245;-66
2022/08/27 00:31:43;;;;;;;12.05;7.68;;;;;;;22.81;73.62;101266.63;6037354;29;20244;-68
2022/08/27 00:35:08;;;;;;;11.05;7.25;;;;;;;22.52;74.67;101270.50;6042115;29;20227;-68
2022/08/27 00:38:29;;;;;;;9.90;7.28;;;;;;;22.33;75.20;101262.13;6044310;29;20238;-67
2022/08/27 00:41:50;;;;;;;14.45;8.10;;;;;;;22.25;75.47;101257.66;6035754;29;20225;-68
2022/08/27 00:45:12;;;;;;;11.98;8.32;;;;;;;22.13;76.18;101264.78;6038640;29;20229;-68
2022/08/27 00:48:36;;;;;;;9.88;7.97;;;;;;;22.10;75.84;101266.03;6035223;29;20242;-68
2022/08/27 00:52:02;;;;;;;12.75;8.02;;;;;;;22.20;76.10;101269.25;6044362;29;20241;-68
2022/08/27 00:55:28;;;;;;;11.00;6.65;;;;;;;22.28;75.53;101271.84;6040671;29;20234;-68
2022/08/27 00:58:51;;;;;;;14.02;7.25;;;;;;;22.29;75.42;101278.19;6040748;29;20601;-68
2022/08/27 01:02:18;;;;;;;10.00;7.68;;;;;;;22.23;75.33;101274.34;6040144;29;20230;-69
2022/08/27 01:05:41;;;;;;;8.77;7.35;;;;;;;22.51;74.51;101278.94;6043118;29;20257;-68
2022/08/27 01:09:07;;;;;;;8.80;7.93;;;;;;;22.46;74.36;101285.06;6038786;29;20241;-67
2022/08/27 01:12:31;;;;;;;9.05;6.07;;;;;;;22.42;74.62;101288.41;6028077;29;20261;-68
2022/08/27 01:15:57;;;;;;;10.95;7.65;;;;;;;22.32;74.55;101294.25;6013280;29;20229;-68
2022/08/27 01:19:24;;;;;;;10.80;8.85;;;;;;;22.10;75.36;101304.47;6039400;29;20253;-67
2022/08/27 01:22:54;;;;;;;11.05;8.20;;;;;;;22.32;74.58;101302.50;6035037;29;20234;-68
2022/08/27 01:26:18;;;;;;;14.02;10.63;;;;;;;22.06;75.40;101311.44;6034931;29;20319;-67
2022/08/27 01:29:39;;;;;;;10.25;8.63;;;;;;;22.18;75.15;101322.69;6030273;29;20238;-68
2022/08/27 01:33:00;;;;;;;13.70;9.93;;;;;;;22.14;75.28;101324.16;6035211;29;20313;-67
2022/08/27 01:36:21;;;;;;;12.20;8.90;;;;;;;21.94;75.86;101315.78;6037568;29;20237;-68
2022/08/27 01:39:43;;;;;;;13.38;10.23;;;;;;;22.05;75.21;101315.19;6036878;29;20238;-68
2022/08/27 01:43:06;;;;;;;15.95;9.82;;;;;;;22.02;75.49;101312.88;6039267;29;20233;-67
2022/08/27 01:46:28;;;;;;;13.70;8.90;;;;;;;22.17;75.17;101310.84;6035639;29;20228;-68
2022/08/27 01:49:49;;;;;;;14.43;9.32;;;;;;;22.03;75.74;101308.22;6034764;29;20254;-67
2022/08/27 01:53:13;;;;;;;11.45;9.35;;;;;;;22.19;74.52;101310.66;6036699;29;20234;-68
2022/08/27 01:56:34;;;;;;;17.08;10.98;;;;;;;22.16;74.74;101311.06;6040829;29;20237;-68
2022/08/27 01:59:56;;;;;;;15.52;10.30;;;;;;;22.07;75.36;101313.09;6034178;29;20238;-68
2022/08/27 02:03:17;;;;;;;12.43;9.85;;;;;;;21.97;75.63;101307.13;6032505;29;20550;-68
2022/08/27 02:06:39;;;;;;;12.38;8.65;;;;;;;22.29;74.26;101300.16;6034105;29;20245;-69
2022/08/27 02:09:59;;;;;;;13.77;11.45;;;;;;;22.08;74.97;101301.09;6035779;29;20242;-68
2022/08/27 02:13:21;;;;;;;13.25;10.15;;;;;;;22.36;73.66;101290.06;6041725;29;20234;-68
2022/08/27 02:16:43;;;;;;;15.70;11.80;;;;;;;22.26;74.38;101292.31;6037669;29;20604;-67
2022/08/27 02:20:05;;;;;;;20.90;9.38;;;;;;;22.40;73.88;101288.63;6035347;29;20234;-67
2022/08/27 02:23:26;;;;;;;18.05;11.25;;;;;;;22.25;74.21;101279.63;6033982;29;20246;-69
2022/08/27 02:26:47;;;;;;;17.85;9.55;;;;;;;21.93;75.34;101283.00;6035763;29;20241;-68
2022/08/27 02:30:11;;;;;;;12.65;8.10;;;;;;;22.16;74.51;101292.69;6036112;29;20233;-67
2022/08/27 02:33:34;;;;;;;19.65;10.50;;;;;;;21.84;75.34;101279.56;6034617;29;20238;-67
2022/08/27 02:36:55;;;;;;;11.85;8.70;;;;;;;22.23;74.20;101284.50;6035843;29;20308;-68
2022/08/27 02:40:19;;;;;;;19.33;10.77;;;;;;;21.87;75.16;101289.28;6033461;29;20322;-67
2022/08/27 02:43:40;;;;;;;15.25;10.90;;;;;;;22.07;74.58;101293.06;6038116;29;20234;-68
2022/08/27 02:47:02;;;;;;;14.93;10.80;;;;;;;21.76;75.45;101301.63;6036746;29;20229;-68
2022/08/27 02:50:24;;;;;;;12.93;10.27;;;;;;;21.80;75.53;101304.84;6034118;29;20237;-68
2022/08/27 02:53:44;;;;;;;15.77;9.63;;;;;;;21.95;75.13;101300.13;6037628;29;20229;-68
2022/08/27 02:57:05;;;;;;;14.35;8.68;;;;;;;22.01;74.79;101299.31;6036669;29;20241;-68
2022/08/27 03:00:29;;;;;;;13.50;9.05;;;;;;;21.95;74.59;101306.47;6036240;29;20542;-68
2022/08/27 03:03:50;;;;;;;15.18;9.32;;;;;;;21.96;74.67;101299.94;6036660;29;20237;-69
2022/08/27 03:07:13;;;;;;;16.88;11.63;;;;;;;22.04;74.40;101302.53;6038308;29;20513;-67
2022/08/27 03:10:34;;;;;;;13.18;10.48;;;;;;;21.73;75.67;101304.78;6035246;29;20327;-67
2022/08/27 03:13:55;;;;;;;11.15;8.85;;;;;;;21.97;74.65;101296.13;6035274;29;20831;-67
2022/08/27 03:20:56;;;;;;;17.45;10.30;;;;;;;21.63;75.89;101290.56;6031932;29;20233;-66
2022/08/27 03:24:19;;;;;;;13.32;9.57;;;;;;;21.61;75.85;101300.03;6040466;29;20238;-67
2022/08/27 03:27:40;;;;;;;11.75;9.52;;;;;;;21.88;74.66;101296.50;6038321;29;20238;-68
2022/08/27 03:31:03;;;;;;;10.43;8.75;;;;;;;21.89;74.49;101301.78;6037229;29;20254;-68
2022/08/27 03:34:24;;;;;;;9.85;7.18;;;;;;;21.83;74.90;101301.72;6042709;29;20546;-68
2022/08/27 03:37:45;;;;;;;15.02;9.23;;;;;;;21.77;74.44;101302.50;6043382;29;20238;-67
2022/08/27 03:41:08;;;;;;;12.77;9.88;;;;;;;21.57;75.45;101291.31;6039337;29;20336;-68
2022/08/27 03:44:30;;;;;;;13.77;10.23;;;;;;;21.58;75.33;101295.78;6046690;29;20351;-68
2022/08/27 03:47:51;;;;;;;11.02;9.48;;;;;;;21.55;75.42;101296.16;6045055;29;20226;-68
2022/08/27 03:51:13;;;;;;;11.77;10.25;;;;;;;21.78;74.53;101301.47;6041938;29;20620;-68
2022/08/27 03:54:35;;;;;;;14.07;10.57;;;;;;;21.63;75.18;101304.28;6042724;29;20233;-68
2022/08/27 03:57:58;;;;;;;17.65;10.25;;;;;;;21.66;75.13;101300.28;6042807;29;20230;-68
2022/08/27 04:01:18;;;;;;;12.23;9.15;;;;;;;21.73;74.70;101295.69;6041417;29;20229;-68
2022/08/27 04:04:39;;;;;;;13.60;10.25;;;;;;;21.73;74.74;101304.78;6044471;29;20229;-68
2022/08/27 04:08:00;;;;;;;15.50;10.27;;;;;;;21.53;75.23;101303.75;6030804;29;20261;-67
2022/08/27 04:11:22;;;;;;;15.18;10.85;;;;;;;21.60;75.04;101301.91;6041352;29;20245;-67
2022/08/27 04:14:44;;;;;;;15.60;11.27;;;;;;;21.59;74.92;101313.09;6042088;29;20237;-67
2022/08/27 04:18:05;;;;;;;11.82;10.63;;;;;;;21.40;75.74;101298.97;6044443;29;20571;-68
2022/08/27 04:21:26;;;;;;;16.33;10.93;;;;;;;21.55;75.05;101293.41;6037049;29;20260;-68
2022/08/27 04:24:47;;;;;;;10.88;9.65;;;;;;;21.54;75.35;101296.38;6037349;29;20238;-68
2022/08/27 04:28:09;;;;;;;10.23;8.80;;;;;;;21.70;74.56;101305.19;6039941;29;20241;-68
2022/08/27 04:31:33;;;;;;;15.90;10.20;;;;;;;21.77;74.35;101300.59;6039421;29;20233;-68
2022/08/27 04:34:54;;;;;;;14.18;11.68;;;;;;;21.67;74.09;101302.84;6036754;29;20234;-68
2022/08/27 04:38:15;;;;;;;14.95;10.73;;;;;;;21.51;75.25;101305.00;6043103;29;20238;-67
2022/08/27 04:41:36;;;;;;;17.85;10.75;;;;;;;21.53;74.75;101314.72;6037744;29;20817;-67
2022/08/27 04:44:57;;;;;;;11.98;8.18;;;;;;;21.72;74.18;101302.22;6041850;29;20234;-68
2022/08/27 04:48:19;;;;;;;14.20;8.70;;;;;;;21.72;73.84;101307.72;6041920;29;20234;-67
2022/08/27 04:51:41;;;;;;;10.70;9.02;;;;;;;21.82;73.50;101311.03;6040131;29;20302;-68
2022/08/27 04:55:02;;;;;;;11.27;9.23;;;;;;;21.70;73.61;101312.56;6040619;29;20242;-68
2022/08/27 04:58:25;;;;;;;11.27;9.60;;;;;;;21.60;74.05;101315.66;6035118;29;20267;-67
2022/08/27 05:01:46;;;;;;;11.52;8.95;;;;;;;21.65;73.94;101313.16;6037585;29;20230;-68
2022/08/27 05:05:09;;;;;;;9.73;8.43;;;;;;;21.84;73.29;101306.19;6039794;29;20680;-68
2022/08/27 05:08:31;;;;;;;11.85;8.35;;;;;;;21.65;73.69;101304.94;6048666;29;20230;-69
2022/08/27 05:11:53;;;;;;;11.43;10.30;;;;;;;21.48;74.53;101309.00;6036301;29;20234;-68
2022/08/27 05:15:14;;;;;;;9.38;6.25;;;;;;;21.73;73.82;101312.16;6040007;29;20259;-68
2022/08/27 05:18:36;;;;;;;9.02;7.82;;;;;;;21.40;74.52;101314.63;6038428;29;20245;-66
2022/08/27 05:21:58;;;;;;;10.80;7.75;;;;;;;21.59;73.94;101313.09;6037875;29;22116;-69
2022/08/27 05:25:19;;;;;;;8.50;7.68;;;;;;;21.61;74.12;101320.06;6040509;29;20766;-68
2022/08/27 05:28:40;;;;;;;10.63;9.50;;;;;;;21.69;73.47;101319.09;6035196;29;20253;-67
2022/08/27 05:32:01;;;;;;;12.45;11.10;;;;;;;21.58;73.99;101328.72;6032580;29;20823;-68
2022/08/27 05:35:22;;;;;;;13.25;9.90;;;;;;;21.63;73.72;101330.88;6040144;29;20536;-68
2022/08/27 05:38:44;;;;;;;12.27;7.57;;;;;;;21.59;73.69;101330.41;6035188;29;20251;-67
2022/08/27 05:42:06;;;;;;;13.18;8.45;;;;;;;21.72;73.10;101326.94;6038874;29;20246;-67
2022/08/27 05:45:27;;;;;;;13.38;10.07;;;;;;;21.56;73.31;101330.81;6038998;29;20578;-68
2022/08/27 05:48:48;;;;;;;11.68;9.20;;;;;;;21.50;73.75;101334.34;6043700;29;20245;-67
2022/08/27 05:52:10;;;;;;;11.82;9.88;;;;;;;21.39;74.00;101332.09;6030555;29;20233;-68
2022/08/27 05:55:38;;;;;;;11.40;8.55;;;;;;;21.24;74.76;101332.16;6045168;29;21103;-68
2022/08/27 06:02:37;;;;;;;11.27;10.13;;;;;;;21.30;74.81;101330.53;6037628;29;23090;-67
2022/08/27 06:06:02;;;;;;;12.45;10.18;;;;;;;21.33;74.72;101335.63;6031154;29;20245;-67
2022/08/27 06:09:27;;;;;;;10.30;8.30;;;;;;;21.59;73.96;101338.63;6033544;29;20513;-68
2022/08/27 06:12:49;;;;;;;18.75;10.05;;;;;;;21.45;74.04;101337.66;6041862;29;20260;-68
2022/08/27 06:16:14;;;;;;;9.88;8.88;;;;;;;21.31;74.58;101334.97;6027478;29;20245;-69
2022/08/27 06:19:35;;;;;;;12.38;10.25;;;;;;;21.17;75.12;101333.97;6042906;29;20238;-67
2022/08/27 06:22:56;;;;;;;10.77;8.65;;;;;;;21.24;74.62;101337.66;6039800;29;20656;-68
2022/08/27 06:26:19;;;;;;;12.07;10.13;;;;;;;21.26;74.64;101342.94;6029523;29;20631;-68
2022/08/27 06:29:42;;;;;;;12.68;9.88;;;;;;;21.26;74.51;101341.03;6032565;29;20237;-68
2022/08/27 06:33:03;;;;;;;14.30;10.43;;;;;;;21.17;74.78;101339.44;6016719;29;20253;-68
2022/08/27 06:36:25;;;;;;;17.25;10.55;;;;;;;21.33;74.22;101341.13;6029044;29;20575;-66
2022/08/27 06:39:46;;;;;;;12.65;10.48;;;;;;;21.46;73.32;101344.00;6027567;29;20616;-67
2022/08/27 06:43:07;;;;;;;12.32;9.48;;;;;;;21.45;73.19;101340.41;6026090;29;20233;-66
2022/08/27 06:46:30;;;;;;;15.45;10.68;;;;;;;21.05;74.28;101345.66;6012357;29;20324;-66
2022/08/27 06:49:51;;;;;;;11.48;10.27;;;;;;;21.12;74.05;101344.69;6019153;29;20230;-67
2022/08/27 06:53:13;;;;;;;13.75;8.85;;;;;;;21.09;74.31;101344.22;6014638;29;20241;-67
2022/08/27 06:56:34;;;;;;;12.23;10.20;;;;;;;20.97;74.80;101351.19;6011207;29;20230;-67
2022/08/27 06:59:55;;;;;;;11.48;9.27;;;;;;;21.39;72.65;101345.81;6006212;29;20225;-67
2022/08/27 07:03:18;;;;;;;13.77;11.18;;;;;;;21.28;72.72;101349.06;6017100;29;20233;-67
2022/08/27 07:06:40;;;;;;;12.73;10.40;;;;;;;21.54;71.35;101343.88;6015879;29;20324;-68
2022/08/27 07:10:01;;;;;;;13.60;7.47;;;;;;;21.56;71.07;101352.75;6017987;29;20262;-67
2022/08/27 07:13:22;;;;;;;13.25;6.95;;;;;;;21.53;71.28;101344.91;6023657;29;20234;-67
2022/08/27 07:16:43;;;;;;;11.98;8.63;;;;;;;21.52;71.21;101345.13;6014067;29;20234;-67
2022/08/27 07:20:07;;;;;;;10.85;7.50;;;;;;;21.27;72.05;101358.34;6020582;29;20250;-67
2022/08/27 07:23:29;;;;;;;12.95;8.57;;;;;;;21.12;72.64;101358.41;6018595;29;20234;-67
2022/08/27 07:26:49;;;;;;;13.88;8.52;;;;;;;21.19;72.14;101353.84;6020804;29;20234;-68
2022/08/27 07:30:14;;;;;;;12.55;8.82;;;;;;;21.23;72.09;101363.38;6020964;29;20599;-67
2022/08/27 07:33:34;;;;;;;9.68;6.75;;;;;;;21.27;72.12;101367.44;6021049;29;20257;-66
2022/08/27 07:36:57;;;;;;;11.27;8.35;;;;;;;20.98;72.54;101370.22;6021654;29;20265;-67
2022/08/27 07:40:18;;;;;;;9.20;7.95;;;;;;;21.03;72.65;101377.88;6006086;29;20317;-69
2022/08/27 07:47:17;;;;;;;8.50;6.97;;;;;;;21.17;72.38;101374.28;6029825;29;20229;-67
2022/08/27 07:50:38;;;;;;;14.77;8.65;;;;;;;21.23;72.11;101384.47;6033399;29;20245;-68
2022/08/27 07:54:01;;;;;;;16.90;8.40;;;;;;;21.05;72.33;101386.78;6029978;29;20237;-68
2022/08/27 07:57:21;;;;;;;9.63;6.63;;;;;;;20.66;73.88;101387.91;6036302;29;20233;-66
2022/08/27 08:00:45;;;;;;;11.45;7.93;;;;;;;20.86;73.41;101392.81;6034128;29;20229;-67
2022/08/27 08:04:06;;;;;;;8.80;6.97;;;;;;;21.00;73.24;101395.56;6047722;29;20234;-69
2022/08/27 08:07:27;;;;;;;9.55;7.20;;;;;;;21.24;72.25;101400.72;6050833;29;20672;-67
2022/08/27 08:10:50;;;;;;;9.15;6.45;;;;;;;21.24;72.23;101406.22;6042758;29;20238;-68
2022/08/27 08:14:11;;;;;;;11.40;7.78;;;;;;;21.30;71.72;101399.09;6021677;29;20611;-67
2022/08/27 08:17:32;;;;;;;9.23;6.60;;;;;;;21.25;72.48;101407.94;6023473;29;20234;-67
2022/08/27 08:20:58;;;;;;;8.70;5.97;;;;;;;21.38;72.24;101409.97;6022644;29;21301;-67
2022/08/27 08:24:20;;;;;;;8.60;6.28;;;;;;;21.33;72.25;101415.19;6021786;29;20549;-69
2022/08/27 08:27:43;;;;;;;10.25;6.85;;;;;;;21.17;73.26;101412.69;6021055;29;20246;-67
2022/08/27 08:31:05;;;;;;;7.97;6.35;;;;;;;21.27;72.32;101415.97;6037025;29;20231;-66
2022/08/27 08:34:27;;;;;;;9.07;5.90;;;;;;;21.49;71.33;101420.44;6027159;29;20238;-66
2022/08/27 08:37:48;;;;;;;10.23;6.95;;;;;;;21.20;71.91;101432.31;6029579;29;20233;-67
2022/08/27 08:41:35;;;;;;;11.02;6.90;;;;;;;21.17;72.20;101432.69;6029875;29;20230;-68
2022/08/27 08:44:59;;;;;;;9.65;6.72;;;;;;;21.12;72.17;101428.84;6049295;29;20238;-68
2022/08/27 08:48:23;;;;;;;12.48;6.43;;;;;;;21.34;71.27;101430.63;6046370;29;20838;-68
2022/08/27 08:51:45;;;;;;;16.05;7.05;;;;;;;21.38;71.08;101438.25;6049332;29;20633;-67
2022/08/27 08:55:20;;;;;;;10.45;7.68;;;;;;;21.42;70.29;101434.06;6041624;29;20548;-69
2022/08/27 08:58:49;;;;;;;9.00;6.28;;;;;;;21.49;70.05;101442.38;6048104;29;20624;-67
2022/08/27 09:02:13;;;;;;;10.65;7.03;;;;;;;21.49;69.57;101448.72;6048970;29;20230;-68
2022/08/27 09:05:37;;;;;;;11.73;6.85;;;;;;;21.30;70.37;101446.59;6032978;29;20238;-68
2022/08/27 09:09:04;;;;;;;8.48;7.07;;;;;;;21.22;70.67;101446.69;6054003;29;20321;-68
2022/08/27 09:12:29;;;;;;;11.82;6.53;;;;;;;21.36;69.78;101445.00;6046278;29;20246;-68
2022/08/27 09:15:53;;;;;;;12.60;8.18;;;;;;;21.20;70.48;101451.53;6050696;29;20233;-68
2022/08/27 09:19:16;;;;;;;8.80;6.45;;;;;;;21.30;70.37;101451.22;6050898;29;20240;-68
2022/08/27 09:22:49;;;;;;;12.93;6.47;;;;;;;21.56;69.24;101447.94;6043072;29;20238;-67
2022/08/27 09:26:18;;;;;;;11.35;5.05;;;;;;;21.62;68.77;101459.00;6050776;29;20545;-66
2022/08/27 09:29:49;;;;;;;10.68;7.35;;;;;;;21.08;70.61;101454.94;6047111;29;20256;-66
2022/08/27 09:33:11;;;;;;;8.90;6.65;;;;;;;21.15;69.95;101453.97;6043432;29;20241;-66
2022/08/27 09:36:54;;;;;;;7.90;6.47;;;;;;;21.37;69.31;101452.16;6375631;27;20941;-66
2022/08/27 09:40:19;;;;;;;11.20;7.28;;;;;;;21.20;70.29;101456.16;6352279;27;20226;-66
2022/08/27 09:43:42;;;;;;;7.45;5.45;;;;;;;21.48;69.05;101457.16;6333264;27;20318;-66
2022/08/27 09:47:04;;;;;;;9.38;6.43;;;;;;;21.45;68.79;101455.66;6351417;27;20229;-66
2022/08/27 09:50:35;;;;;;;10.85;6.93;;;;;;;21.11;69.68;101452.66;6342156;27;20217;-66
2022/08/27 09:53:59;;;;;;;12.55;6.22;;;;;;;21.26;69.67;101455.38;6348708;27;20228;-67
2022/08/27 09:57:33;;;;;;;10.63;7.13;;;;;;;21.36;69.20;101453.22;6350039;27;20229;-67
2022/08/27 10:01:06;;;;;;;11.82;7.57;;;;;;;21.20;69.55;101451.53;6349920;27;20248;-67
2022/08/27 10:04:35;;;;;;;10.85;5.75;;;;;;;21.28;69.03;101456.91;6334866;27;20216;-67
2022/08/27 10:08:00;;;;;;;9.40;5.88;;;;;;;21.45;68.54;101454.78;6359146;27;20594;-67
2022/08/27 10:11:30;;;;;;;9.68;5.45;;;;;;;21.31;68.54;101452.94;6355528;27;20666;-67
2022/08/27 10:14:55;;;;;;;11.75;6.78;;;;;;;21.37;68.43;101449.41;6343848;27;20605;-68
2022/08/27 10:18:26;;;;;;;15.13;6.25;;;;;;;21.40;68.12;101449.88;6359461;27;20570;-67
2022/08/27 10:21:55;;;;;;;13.20;10.27;;;;;;;21.39;68.25;101453.69;6348783;27;20261;-67
2022/08/27 10:25:26;;;;;;;19.35;17.15;;;;;;;21.09;69.64;101448.44;6346638;27;20228;-66
2022/08/27 10:28:59;;;;;;;9.20;7.65;;;;;;;21.23;69.33;101459.38;6341883;27;20225;-66
2022/08/27 10:32:34;;;;;;;10.82;7.50;;;;;;;21.29;68.83;101457.75;6342132;27;20241;-66
2022/08/27 10:36:02;;;;;;;12.10;6.57;;;;;;;21.37;68.33;101455.75;6334213;27;20382;-67
2022/08/27 10:39:39;;;;;;;12.13;7.40;;;;;;;21.89;66.29;101452.78;6331857;27;20304;-66
2022/08/27 10:43:14;;;;;;;8.30;5.85;;;;;;;21.72;67.20;101459.53;6341490;27;20791;-65
2022/08/27 10:46:55;;;;;;;9.40;6.28;;;;;;;22.00;66.00;101462.41;6333129;27;20230;-67
2022/08/27 10:50:27;;;;;;;11.27;6.72;;;;;;;21.89;66.10;101461.03;6300514;27;20230;-68
2022/08/27 10:53:56;;;;;;;9.70;6.47;;;;;;;21.75;66.86;101472.03;6304890;27;20225;-68
2022/08/27 10:57:26;;;;;;;9.35;5.80;;;;;;;21.92;66.42;101462.53;6310086;27;20507;-68
2022/08/27 11:00:57;;;;;;;9.45;6.20;;;;;;;21.52;67.17;101471.34;6309671;27;20740;-68
2022/08/27 11:04:23;;;;;;;8.63;6.43;;;;;;;21.88;66.42;101466.72;6295589;27;21223;-68
2022/08/27 11:07:47;;;;;;;11.30;7.78;;;;;;;21.80;66.15;101475.88;6300146;27;20800;-67
2022/08/27 11:11:12;;;;;;;9.63;7.35;;;;;;;21.76;66.71;101469.09;6302560;27;20249;-68
2022/08/27 11:14:37;;;;;;;9.00;5.93;;;;;;;22.05;66.54;101466.25;6297642;27;20253;-68
2022/08/27 11:18:03;;;;;;;8.32;5.57;;;;;;;21.74;66.30;101464.81;6295160;27;20611;-66
2022/08/27 11:21:34;;;;;;;8.02;5.88;;;;;;;21.93;66.45;101461.47;6305225;27;20229;-67
2022/08/27 11:25:01;;;;;;;8.13;5.78;;;;;;;21.93;66.37;101467.84;6272399;27;20226;-63
2022/08/27 11:28:26;;;;;;;9.15;6.18;;;;;;;22.14;64.77;101470.59;6290440;27;20230;-62
2022/08/27 11:31:56;;;;;;;12.48;5.57;;;;;;;21.94;65.68;101469.53;6314249;27;20234;-63
2022/08/27 11:35:24;;;;;;;8.98;5.28;;;;;;;21.70;66.08;101467.13;6298389;27;20230;-65
2022/08/27 11:38:53;;;;;;;10.60;5.30;;;;;;;21.99;65.51;101461.56;6313789;27;20225;-65
2022/08/27 11:42:23;;;;;;;12.25;5.50;;;;;;;22.03;65.07;101468.34;6315901;27;20634;-66
2022/08/27 11:45:56;;;;;;;8.57;4.47;;;;;;;22.18;65.55;101466.38;6314092;27;20225;-65
2022/08/27 11:49:27;;;;;;;8.60;4.65;;;;;;;22.28;64.69;101466.03;6308918;27;20230;-66
2022/08/27 11:52:58;;;;;;;9.60;5.72;;;;;;;22.43;64.28;101457.72;6306445;27;20249;-64
2022/08/27 11:56:37;;;;;;;9.52;4.03;;;;;;;22.38;63.75;101461.09;6306161;27;20234;-64
2022/08/27 12:00:12;;;;;;;6.75;4.30;;;;;;;22.52;63.29;101451.88;6311637;27;20233;-65
2022/08/27 12:03:35;;;;;;;11.55;4.90;;;;;;;22.61;62.53;101453.44;6308745;27;22097;-66
2022/08/27 12:07:02;;;;;;;5.78;3.88;;;;;;;22.34;62.51;101462.53;6325216;27;20238;-65
2022/08/27 12:10:42;;;;;;;7.13;4.35;;;;;;;22.32;63.52;101459.09;6311030;27;20337;-65
2022/08/27 12:14:16;;;;;;;9.90;4.22;;;;;;;22.27;62.89;101456.13;6306193;27;20699;-65
2022/08/27 12:17:45;;;;;;;4.25;3.03;;;;;;;21.77;64.28;101457.06;6318434;27;20222;-65
2022/08/27 12:21:16;;;;;;;4.95;3.13;;;;;;;22.07;63.66;101461.41;6305385;27;20225;-66
2022/08/27 12:24:43;;;;;;;6.57;3.25;;;;;;;22.67;62.02;101460.06;6305411;27;20251;-65
2022/08/27 12:28:08;;;;;;;8.20;3.47;;;;;;;22.96;60.71;101457.09;6306073;27;20595;-65
2022/08/27 12:31:30;;;;;;;8.25;3.75;;;;;;;22.93;59.53;101454.72;6310020;27;20234;-65
2022/08/27 12:35:01;;;;;;;9.25;3.47;;;;;;;23.12;60.23;101445.75;6312244;27;20616;-66
2022/08/27 12:38:37;;;;;;;6.45;3.00;;;;;;;23.15;58.45;101448.09;6324791;27;21786;-65
2022/08/27 12:41:58;;;;;;;9.05;3.75;;;;;;;23.40;57.65;101443.81;6305499;27;20218;-65
2022/08/27 12:45:21;;;;;;;9.52;4.07;;;;;;;24.02;57.41;101440.78;6311253;27;20229;-64
2022/08/27 12:48:47;;;;;;;6.05;3.17;;;;;;;24.11;56.21;101438.69;6309315;27;20229;-65
2022/08/27 12:52:18;;;;;;;6.72;6.07;;;;;;;24.39;55.40;101448.44;6317017;27;20522;-66
2022/08/27 12:55:52;;;;;;;17.88;16.00;;;;;;;25.10;54.84;101443.06;6335421;27;20240;-67
2022/08/27 12:59:48;;;;;;;7.57;3.75;;;;;;;27.94;46.43;101434.59;6342803;27;20221;-66
2022/08/27 13:03:24;;;;;;;7.75;3.58;;;;;;;29.90;40.66;101432.81;6324815;27;20244;-66
2022/08/27 13:06:47;;;;;;;7.53;2.85;;;;;;;30.65;38.39;101430.50;6324542;27;20534;-66
2022/08/27 13:10:11;;;;;;;7.03;3.10;;;;;;;32.24;38.61;101430.06;6327358;27;20234;-66
2022/08/27 13:13:32;;;;;;;5.88;3.20;;;;;;;32.76;35.05;101432.16;6335376;27;20320;-66
2022/08/27 13:16:56;;;;;;;5.45;3.03;;;;;;;31.75;35.38;101428.41;6330352;27;20234;-66
2022/08/27 13:20:21;;;;;;;6.00;2.65;;;;;;;32.29;36.85;101430.09;6320662;27;20245;-66
2022/08/27 13:23:48;;;;;;;11.07;3.25;;;;;;;33.58;33.83;101421.19;6324466;27;20608;-66
2022/08/27 13:27:09;;;;;;;5.20;3.60;;;;;;;33.50;33.07;101413.31;6306208;27;20530;-67
2022/08/27 13:30:32;;;;;;;4.57;2.08;;;;;;;34.17;33.13;101424.41;6294838;27;20223;-67
2022/08/27 13:33:57;;;;;;;7.10;2.88;;;;;;;34.30;31.06;101419.06;6295674;27;20238;-71
2022/08/27 13:37:24;;;;;;;5.57;2.53;;;;;;;33.86;31.81;101419.84;6305282;28;20261;-69
2022/08/27 13:40:56;;;;;;;5.90;3.20;;;;;;;34.27;32.69;101411.25;6298705;27;20231;-70
2022/08/27 13:44:21;;;;;;;7.20;2.80;;;;;;;35.50;29.91;101416.34;6308509;27;20321;-66
2022/08/27 13:47:48;;;;;;;7.40;3.25;;;;;;;34.36;30.71;101403.13;6304562;28;20222;-66
2022/08/27 13:51:10;;;;;;;7.45;2.90;;;;;;;35.67;30.07;101403.63;6319441;28;20997;-66
2022/08/27 13:54:33;;;;;;;7.20;2.53;;;;;;;32.15;33.86;101400.09;6303359;27;20233;-67
2022/08/27 13:57:55;;;;;;;26.83;24.20;;;;;;;33.57;33.22;101397.09;6329158;27;20658;-66
2022/08/27 14:01:26;;;;;;;9.98;3.38;;;;;;;32.40;34.04;101391.94;6328000;27;20252;-66
2022/08/27 14:04:49;;;;;;;13.88;3.75;;;;;;;31.82;36.49;101397.53;6324734;27;20214;-67
2022/08/27 14:08:14;;;;;;;5.57;2.78;;;;;;;33.41;31.71;101389.75;6325559;27;20510;-65
2022/08/27 14:11:35;;;;;;;5.75;2.75;;;;;;;32.02;35.40;101394.97;6320010;27;20234;-66
2022/08/27 14:15:11;;;;;;;7.70;3.33;;;;;;;32.66;33.79;101390.19;6325428;27;20678;-65
2022/08/27 14:18:35;;;;;;;7.95;3.35;;;;;;;33.28;33.01;101387.47;6321952;27;20229;-66
2022/08/27 14:21:57;;;;;;;7.32;3.63;;;;;;;32.53;32.82;101391.50;6325396;27;20320;-66
2022/08/27 14:25:19;;;;;;;8.35;3.28;;;;;;;32.03;33.83;101385.50;6339132;27;20313;-66
2022/08/27 14:28:41;;;;;;;3.65;2.13;;;;;;;31.80;34.48;101385.78;6336418;27;20233;-66
2022/08/27 14:32:06;;;;;;;4.32;1.92;;;;;;;29.91;37.36;101382.53;6329048;27;20234;-66
2022/08/27 14:35:27;;;;;;;7.05;2.35;;;;;;;29.20;39.11;101376.66;6319785;27;20227;-65
2022/08/27 14:38:51;;;;;;;5.38;2.60;;;;;;;29.00;39.28;101376.16;6328141;27;20237;-66
2022/08/27 14:42:12;;;;;;;4.55;2.38;;;;;;;29.70;38.40;101371.25;6332618;27;20229;-66
2022/08/27 14:45:33;;;;;;;8.15;2.40;;;;;;;29.43;38.03;101375.72;6331203;27;20582;-65
2022/08/27 14:48:58;;;;;;;4.15;1.65;;;;;;;27.48;40.82;101390.94;6329898;27;20233;-65
2022/08/27 14:52:19;;;;;;;4.22;2.20;;;;;;;27.32;42.54;101385.16;6326013;27;20218;-64
2022/08/27 14:55:40;;;;;;;5.90;1.98;;;;;;;28.06;39.90;101376.44;6342408;27;20230;-64
2022/08/27 14:59:01;;;;;;;4.75;2.95;;;;;;;27.97;40.52;101375.94;6332620;27;20900;-65
2022/08/27 15:02:22;;;;;;;4.60;2.40;;;;;;;27.66;41.90;101385.31;6331460;27;20250;-65
2022/08/27 15:05:44;;;;;;;5.32;1.80;;;;;;;28.12;40.54;101378.25;6333638;27;20344;-66
2022/08/27 15:09:05;;;;;;;5.22;1.80;;;;;;;28.28;40.68;101377.53;6332206;27;20253;-67
2022/08/27 15:12:27;;;;;;;3.60;1.48;;;;;;;28.14;40.92;101390.78;6330176;27;20222;-66
2022/08/27 15:15:48;;;;;;;6.28;2.90;;;;;;;27.90;41.58;101385.41;6331737;27;20295;-67
2022/08/27 15:19:12;;;;;;;6.22;1.98;;;;;;;26.95;42.57;101380.75;6328848;27;20238;-67
2022/08/27 15:22:37;;;;;;;4.85;2.25;;;;;;;26.67;44.02;101395.91;6326740;27;20527;-67
2022/08/27 15:25:58;;;;;;;5.38;2.17;;;;;;;27.29;43.46;101391.16;6325807;27;20663;-67
2022/08/27 15:29:19;;;;;;;5.72;1.88;;;;;;;26.96;43.20;101402.66;6328543;27;20576;-67
2022/08/27 15:32:44;;;;;;;3.92;1.95;;;;;;;27.34;42.00;101394.97;6325804;27;20230;-66
2022/08/27 15:36:06;;;;;;;6.05;2.15;;;;;;;27.89;41.58;101394.81;6335211;27;20225;-66
2022/08/27 15:39:28;;;;;;;7.80;2.05;;;;;;;27.62;41.62;101409.03;6323442;27;20238;-66
2022/08/27 15:42:55;;;;;;;6.22;2.35;;;;;;;27.53;41.32;101393.84;6312767;27;20261;-66
2022/08/27 15:46:16;;;;;;;7.35;2.67;;;;;;;27.52;42.30;101396.84;6306342;27;20249;-67
2022/08/27 15:49:39;;;;;;;6.55;1.70;;;;;;;27.49;41.83;101392.63;6312372;27;20249;-67
2022/08/27 15:53:03;;;;;;;4.57;2.10;;;;;;;27.47;41.82;101405.84;6303629;27;20239;-67